Time;durP1;ratioP1;P1;durP2;ratioP2;P2;SDS_P1;SDS_P2;PMS_P1;PMS_P2;Temp;Humidity;BMP_temperature;BMP_pressure;BME280_temperature;BME280_humidity;BME280_pressure;Samples;Min_cycle;Max_cycle;Signal;HPM_P1;HPM_P2
2023/08/03 00:01:31;;;;;;;2.10;0.77;;;19.80;70.90;;;;;;5010461;28;20088;-52
2023/08/03 00:04:00;;;;;;;5.38;1.55;;;19.80;71.00;;;;;;5011924;28;20590;-52
2023/08/03 00:06:32;;;;;;;2.22;0.80;;;19.80;71.10;;;;;;5010353;28;20124;-51
2023/08/03 00:09:01;;;;;;;1.48;0.60;;;19.90;71.10;;;;;;5003369;28;20044;-52
2023/08/03 00:11:28;;;;;;;4.22;0.95;;;19.90;71.20;;;;;;5011588;28;20560;-52
2023/08/03 00:13:55;;;;;;;2.25;0.90;;;19.90;70.90;;;;;;5012079;28;20468;-52
2023/08/03 00:16:24;;;;;;;0.95;0.50;;;19.90;70.90;;;;;;5006683;28;20537;-52
2023/08/03 00:18:50;;;;;;;2.10;0.70;;;19.90;71.10;;;;;;5011173;28;20120;-51
2023/08/03 00:21:20;;;;;;;1.33;0.60;;;19.90;71.00;;;;;;5010025;28;20046;-48
2023/08/03 00:23:49;;;;;;;2.78;0.55;;;19.90;71.00;;;;;;5011879;28;20104;-49
2023/08/03 00:26:19;;;;;;;2.83;0.75;;;19.90;71.10;;;;;;5010038;28;20077;-49
2023/08/03 00:28:56;;;;;;;1.20;0.50;;;19.90;71.50;;;;;;5008714;28;20145;-52
2023/08/03 00:31:23;;;;;;;2.28;0.80;;;19.90;71.50;;;;;;5010406;28;20050;-50
2023/08/03 00:33:58;;;;;;;2.13;0.90;;;19.80;71.60;;;;;;5011669;28;20046;-49
2023/08/03 00:36:30;;;;;;;0.95;0.60;;;19.90;72.10;;;;;;5005569;28;20052;-52
2023/08/03 00:38:57;;;;;;;0.73;0.60;;;19.80;72.10;;;;;;5008087;28;20332;-52
2023/08/03 00:41:27;;;;;;;1.65;1.15;;;19.70;72.20;;;;;;5005996;28;20710;-50
2023/08/03 00:43:56;;;;;;;1.70;0.82;;;19.70;72.70;;;;;;5011656;28;20475;-50
2023/08/03 00:46:23;;;;;;;0.70;0.60;;;19.60;73.00;;;;;;5007152;28;20120;-48
2023/08/03 00:48:50;;;;;;;1.92;1.15;;;19.50;73.40;;;;;;5011189;28;20543;-49
2023/08/03 00:51:17;;;;;;;1.42;0.90;;;19.50;73.90;;;;;;5009346;28;20058;-51
2023/08/03 00:53:48;;;;;;;1.35;0.60;;;19.40;74.20;;;;;;5010347;28;20057;-50
2023/08/03 00:56:16;;;;;;;1.15;0.52;;;19.40;74.40;;;;;;5011898;28;20514;-50
2023/08/03 00:58:45;;;;;;;2.40;0.95;;;19.30;74.70;;;;;;5010627;28;20049;-50
2023/08/03 01:01:20;;;;;;;1.00;0.80;;;19.30;75.00;;;;;;5009499;28;20089;-49
2023/08/03 01:03:54;;;;;;;1.10;0.80;;;19.30;75.60;;;;;;5010479;28;20038;-49
2023/08/03 01:06:22;;;;;;;1.55;0.80;;;19.30;75.20;;;;;;5010676;28;20647;-52
2023/08/03 01:08:48;;;;;;;4.07;1.65;;;19.20;75.20;;;;;;5000717;28;20052;-49
2023/08/03 01:11:15;;;;;;;2.42;1.02;;;19.20;75.40;;;;;;5009874;28;20119;-49
2023/08/03 01:13:42;;;;;;;1.80;0.73;;;19.20;75.50;;;;;;5010928;28;20168;-52
2023/08/03 01:16:09;;;;;;;1.20;0.98;;;19.20;75.80;;;;;;5009964;28;20065;-52
2023/08/03 01:18:37;;;;;;;1.70;1.00;;;19.20;76.00;;;;;;5010316;28;20056;-50
2023/08/03 01:21:08;;;;;;;3.92;1.40;;;19.20;76.10;;;;;;5008973;28;20486;-51
2023/08/03 01:23:35;;;;;;;2.15;1.00;;;19.10;76.00;;;;;;5010810;28;20467;-52
2023/08/03 01:26:03;;;;;;;1.60;1.00;;;19.10;76.10;;;;;;5007167;28;20455;-52
2023/08/03 01:28:31;;;;;;;3.92;0.82;;;19.10;76.10;;;;;;5009502;28;20040;-51
2023/08/03 01:30:58;;;;;;;2.80;1.48;;;19.20;76.10;;;;;;5006150;28;20045;-50
2023/08/03 01:33:25;;;;;;;3.78;1.40;;;19.20;76.10;;;;;;5008987;28;20056;-51
2023/08/03 01:35:58;;;;;;;3.40;1.20;;;19.20;76.20;;;;;;5010475;28;20045;-52
2023/08/03 01:38:29;;;;;;;2.90;1.30;;;19.00;76.30;;;;;;5009176;28;20045;-52
2023/08/03 01:40:56;;;;;;;2.83;1.02;;;19.20;76.40;;;;;;5008697;28;20061;-49
2023/08/03 01:43:22;;;;;;;2.97;1.30;;;19.20;76.40;;;;;;5010105;28;20127;-48
2023/08/03 01:45:49;;;;;;;1.63;0.98;;;19.10;76.40;;;;;;5008594;28;20508;-50
2023/08/03 01:48:17;;;;;;;2.85;1.02;;;19.10;76.30;;;;;;5006562;28;20056;-50
2023/08/03 01:50:44;;;;;;;5.10;1.83;;;19.20;76.50;;;;;;5009263;28;20038;-52
2023/08/03 01:53:13;;;;;;;4.25;1.13;;;19.10;76.50;;;;;;5009668;28;20523;-50
2023/08/03 01:55:45;;;;;;;2.92;1.30;;;19.10;76.50;;;;;;5007141;28;20050;-49
2023/08/03 01:58:17;;;;;;;2.63;1.15;;;19.10;76.80;;;;;;5007805;28;20042;-54
2023/08/03 02:00:44;;;;;;;4.05;1.33;;;19.10;76.70;;;;;;5005120;28;20054;-53
2023/08/03 02:03:13;;;;;;;4.57;1.42;;;19.10;76.70;;;;;;5009581;28;20500;-52
2023/08/03 02:05:41;;;;;;;2.95;1.98;;;19.10;76.80;;;;;;5009978;28;20038;-52
2023/08/03 02:08:14;;;;;;;5.50;1.52;;;19.10;76.80;;;;;;5005620;28;20081;-53
2023/08/03 02:10:42;;;;;;;2.97;1.40;;;19.10;76.60;;;;;;5003588;28;20042;-55
2023/08/03 02:13:09;;;;;;;4.85;1.50;;;19.10;76.70;;;;;;5009317;28;20791;-51
2023/08/03 02:15:38;;;;;;;4.72;1.40;;;19.10;76.60;;;;;;5005691;28;20048;-50
2023/08/03 02:18:09;;;;;;;4.15;1.73;;;19.10;76.80;;;;;;5003500;28;20571;-53
2023/08/03 02:20:38;;;;;;;3.42;1.55;;;19.10;76.60;;;;;;5023429;28;20041;-54
2023/08/03 02:23:05;;;;;;;3.95;1.65;;;19.10;76.60;;;;;;5005053;28;20139;-50
2023/08/03 02:25:36;;;;;;;3.88;1.60;;;19.10;76.40;;;;;;5008134;28;20042;-52
2023/08/03 02:28:03;;;;;;;2.55;1.20;;;19.10;76.50;;;;;;5006263;28;20061;-50
2023/08/03 02:30:31;;;;;;;3.65;1.77;;;19.10;76.40;;;;;;5004960;28;20104;-52
2023/08/03 02:32:57;;;;;;;4.10;1.17;;;19.10;76.50;;;;;;5000991;28;20056;-53
2023/08/03 02:35:31;;;;;;;3.37;1.53;;;19.10;76.50;;;;;;5009127;28;20050;-53
2023/08/03 02:38:00;;;;;;;3.90;1.45;;;19.10;76.30;;;;;;5008544;28;20492;-52
2023/08/03 02:40:26;;;;;;;3.20;1.55;;;19.10;76.20;;;;;;5008340;28;20061;-54
2023/08/03 02:42:56;;;;;;;4.40;1.30;;;19.10;76.10;;;;;;5007255;28;20471;-53
2023/08/03 02:45:25;;;;;;;5.07;1.58;;;19.10;76.10;;;;;;5008835;28;20785;-50
2023/08/03 02:47:55;;;;;;;1.80;1.45;;;19.10;76.10;;;;;;5007646;28;20061;-52
2023/08/03 02:50:22;;;;;;;2.42;1.73;;;19.10;76.10;;;;;;5004378;28;20050;-52
2023/08/03 02:52:54;;;;;;;6.03;2.67;;;19.10;75.90;;;;;;5007165;28;20153;-51
2023/08/03 02:55:21;;;;;;;2.78;1.30;;;19.20;75.90;;;;;;5009792;28;20037;-53
2023/08/03 02:57:48;;;;;;;3.38;1.27;;;19.20;76.00;;;;;;5006556;28;20053;-52
2023/08/03 03:00:18;;;;;;;1.90;1.10;;;19.20;75.70;;;;;;5004717;28;20056;-53
2023/08/03 03:03:03;;;;;;;2.67;1.00;;;19.30;75.80;;;;;;5002499;28;20548;-52
2023/08/03 03:05:39;;;;;;;1.98;1.10;;;19.30;75.80;;;;;;5008440;28;20534;-51
2023/08/03 03:08:10;;;;;;;2.25;0.90;;;19.30;75.30;;;;;;5006229;28;20430;-55
2023/08/03 03:10:48;;;;;;;3.90;1.50;;;19.30;75.20;;;;;;5004525;28;20033;-52
2023/08/03 03:13:14;;;;;;;4.28;1.88;;;19.30;74.90;;;;;;5007568;28;20049;-52
2023/08/03 03:15:46;;;;;;;2.72;1.00;;;19.40;74.70;;;;;;5008660;28;20044;-55
2023/08/03 03:18:16;;;;;;;3.07;1.53;;;19.40;74.60;;;;;;5005945;28;20069;-54
2023/08/03 03:20:42;;;;;;;2.00;1.10;;;19.40;74.50;;;;;;5006965;28;20284;-55
2023/08/03 03:23:13;;;;;;;1.33;1.08;;;19.30;74.20;;;;;;5007665;28;20539;-52
2023/08/03 03:25:41;;;;;;;2.40;0.90;;;19.30;74.20;;;;;;5007564;28;20066;-53
2023/08/03 03:28:07;;;;;;;3.28;1.30;;;19.30;74.20;;;;;;5007100;28;20630;-54
2023/08/03 03:30:37;;;;;;;2.88;1.00;;;19.30;74.20;;;;;;5021739;28;20455;-55
2023/08/03 03:33:07;;;;;;;2.50;0.80;;;19.30;74.20;;;;;;5007913;28;20046;-50
2023/08/03 03:35:39;;;;;;;2.70;1.42;;;19.40;74.30;;;;;;5008664;28;20050;-52
2023/08/03 03:38:08;;;;;;;2.78;1.10;;;19.40;74.40;;;;;;5001977;28;20121;-54
2023/08/03 03:40:37;;;;;;;2.22;0.80;;;19.40;74.30;;;;;;5008269;28;20073;-51
2023/08/03 03:43:07;;;;;;;1.80;0.80;;;19.40;74.30;;;;;;5013568;28;20046;-52
2023/08/03 03:45:34;;;;;;;2.33;0.70;;;19.40;74.90;;;;;;5006959;28;20415;-51
2023/08/03 03:48:07;;;;;;;3.08;0.82;;;19.40;74.20;;;;;;5003194;28;20555;-51
2023/08/03 03:50:37;;;;;;;2.47;0.73;;;19.40;74.00;;;;;;5008758;28;20042;-54
2023/08/03 03:53:03;;;;;;;1.15;0.50;;;19.50;74.10;;;;;;5003004;28;20046;-52
2023/08/03 03:55:38;;;;;;;1.38;0.70;;;19.50;74.00;;;;;;5004196;28;20546;-53
2023/08/03 03:58:05;;;;;;;2.13;0.55;;;19.50;73.80;;;;;;5007622;28;20037;-53
2023/08/03 04:00:39;;;;;;;1.42;0.60;;;19.50;73.70;;;;;;5003156;28;20046;-51
2023/08/03 04:03:11;;;;;;;1.88;0.88;;;19.50;73.60;;;;;;5004483;28;20440;-50
2023/08/03 04:05:38;;;;;;;1.85;0.80;;;19.50;73.50;;;;;;5013157;28;20072;-54
2023/08/03 04:08:06;;;;;;;3.72;0.88;;;19.60;73.40;;;;;;5011044;28;20048;-54
2023/08/03 04:10:35;;;;;;;1.40;0.60;;;19.60;73.30;;;;;;5008937;28;20143;-52
2023/08/03 04:13:04;;;;;;;2.15;0.88;;;19.60;73.20;;;;;;5012175;28;20408;-54
2023/08/03 04:15:34;;;;;;;1.65;0.50;;;19.60;73.10;;;;;;5011488;28;20046;-54
2023/08/03 04:18:02;;;;;;;2.28;0.80;;;19.60;73.00;;;;;;5007470;28;20408;-51
2023/08/03 04:20:40;;;;;;;1.65;1.02;;;19.60;73.10;;;;;;5007130;28;20070;-51
2023/08/03 04:23:09;;;;;;;3.13;0.50;;;19.60;73.10;;;;;;5002221;28;20547;-52
2023/08/03 04:25:39;;;;;;;1.95;1.23;;;19.70;72.90;;;;;;5004877;28;20550;-53
2023/08/03 04:28:17;;;;;;;1.83;0.80;;;19.60;72.80;;;;;;5027020;28;20142;-52
2023/08/03 04:30:47;;;;;;;1.17;0.70;;;19.70;72.90;;;;;;5005857;28;20034;-55
2023/08/03 04:33:13;;;;;;;1.55;0.70;;;19.70;72.90;;;;;;5002519;28;20423;-52
2023/08/03 04:35:41;;;;;;;0.73;0.55;;;19.70;72.80;;;;;;5005991;28;20041;-51
2023/08/03 04:38:19;;;;;;;2.08;0.75;;;19.70;72.80;;;;;;5008111;28;20054;-55
2023/08/03 04:40:56;;;;;;;1.02;0.77;;;19.80;72.70;;;;;;5008452;28;20068;-54
2023/08/03 04:43:28;;;;;;;0.95;0.50;;;19.80;72.60;;;;;;5008982;28;20085;-55
2023/08/03 04:46:04;;;;;;;0.82;0.50;;;19.80;72.50;;;;;;5010113;28;20125;-53
2023/08/03 04:48:32;;;;;;;3.42;1.10;;;19.90;72.60;;;;;;5006042;28;20559;-54
2023/08/03 04:51:04;;;;;;;3.28;0.65;;;19.90;72.40;;;;;;5004184;28;20065;-50
2023/08/03 04:53:35;;;;;;;2.92;0.80;;;19.90;72.30;;;;;;5010387;28;20120;-54
2023/08/03 04:56:05;;;;;;;0.75;0.60;;;19.90;72.10;;;;;;5004009;28;20115;-52
2023/08/03 04:58:32;;;;;;;1.17;0.52;;;19.90;72.00;;;;;;5010477;28;20164;-55
2023/08/03 05:01:04;;;;;;;1.52;1.42;;;20.00;72.00;;;;;;5006479;28;20048;-54
2023/08/03 05:03:31;;;;;;;1.98;0.60;;;20.00;71.90;;;;;;5009736;28;20046;-52
2023/08/03 05:05:57;;;;;;;2.03;0.52;;;20.00;72.80;;;;;;5010244;28;20053;-54
2023/08/03 05:08:27;;;;;;;0.77;0.55;;;19.90;72.30;;;;;;5008988;28;20049;-50
2023/08/03 05:10:58;;;;;;;2.08;0.68;;;19.90;72.40;;;;;;5014649;28;20510;-55
2023/08/03 05:13:26;;;;;;;0.47;0.47;;;19.90;72.50;;;;;;5008788;28;20050;-55
2023/08/03 05:15:53;;;;;;;0.73;0.50;;;19.80;72.80;;;;;;5008139;28;20042;-55
2023/08/03 05:18:21;;;;;;;1.67;0.82;;;19.80;73.10;;;;;;5009857;28;20045;-51
2023/08/03 05:20:50;;;;;;;3.95;1.42;;;19.70;73.40;;;;;;5010041;28;20057;-55
2023/08/03 05:23:24;;;;;;;2.60;0.40;;;19.60;73.80;;;;;;5006845;28;20112;-54
2023/08/03 05:25:58;;;;;;;1.90;0.60;;;19.60;74.20;;;;;;5010029;28;20048;-55
2023/08/03 05:28:25;;;;;;;3.45;0.68;;;19.50;75.00;;;;;;5006239;28;20046;-51
2023/08/03 05:30:52;;;;;;;1.20;0.75;;;19.40;75.00;;;;;;5008313;28;20153;-53
2023/08/03 05:33:25;;;;;;;1.35;0.70;;;19.40;75.40;;;;;;5010194;28;20610;-55
2023/08/03 05:36:04;;;;;;;;;;;;;;;;;;;;;
2023/08/03 05:38:34;;;;;;;2.43;0.90;;;19.20;75.90;;;;;;5007705;28;20137;-51
2023/08/03 05:41:01;;;;;;;1.40;0.80;;;19.20;76.10;;;;;;5009633;28;20129;-55
2023/08/03 05:43:30;;;;;;;2.10;0.70;;;19.10;76.40;;;;;;5009721;28;20073;-54
2023/08/03 05:46:02;;;;;;;1.05;0.70;;;19.10;76.70;;;;;;5009149;28;20131;-55
2023/08/03 05:48:32;;;;;;;1.85;0.90;;;19.10;76.90;;;;;;5005939;28;20046;-55
2023/08/03 05:51:03;;;;;;;1.70;1.00;;;19.10;77.00;;;;;;5009470;28;20044;-50
2023/08/03 05:53:34;;;;;;;4.25;0.80;;;19.00;77.40;;;;;;5009791;28;20052;-50
2023/08/03 05:56:11;;;;;;;1.90;1.10;;;19.00;77.50;;;;;;5001405;28;20049;-51
2023/08/03 05:58:39;;;;;;;1.20;0.70;;;19.00;78.10;;;;;;5007766;28;20121;-51
2023/08/03 06:01:09;;;;;;;1.65;1.33;;;19.00;77.80;;;;;;5009403;28;20041;-51
2023/08/03 06:03:42;;;;;;;1.80;0.63;;;19.00;78.00;;;;;;5008646;28;20038;-54
2023/08/03 06:06:10;;;;;;;2.85;0.63;;;19.00;78.20;;;;;;5008288;28;20128;-54
2023/08/03 06:08:49;;;;;;;2.08;0.77;;;19.00;78.10;;;;;;5008218;28;20049;-53
2023/08/03 06:11:20;;;;;;;3.55;0.77;;;19.00;78.70;;;;;;5010432;28;20062;-51
2023/08/03 06:13:55;;;;;;;0.73;0.50;;;19.00;78.40;;;;;;5010679;28;20049;-54
2023/08/03 06:16:25;;;;;;;2.45;0.70;;;19.10;78.20;;;;;;5010131;28;20108;-51
2023/08/03 06:18:54;;;;;;;0.77;0.68;;;19.10;78.50;;;;;;5009042;28;20058;-51
2023/08/03 06:21:24;;;;;;;2.15;0.77;;;19.10;78.50;;;;;;5009349;28;20052;-54
2023/08/03 06:23:57;;;;;;;0.80;0.70;;;19.10;78.80;;;;;;5008075;28;20042;-51
2023/08/03 06:26:27;;;;;;;1.08;0.90;;;19.10;78.70;;;;;;5012914;28;20044;-50
2023/08/03 06:28:54;;;;;;;1.05;0.88;;;19.10;78.90;;;;;;5009390;28;20723;-51
2023/08/03 06:31:32;;;;;;;3.45;0.80;;;19.10;78.70;;;;;;5009288;28;20042;-54
2023/08/03 06:34:02;;;;;;;1.67;1.13;;;19.10;79.00;;;;;;5009461;28;20129;-51
2023/08/03 06:36:29;;;;;;;1.48;0.70;;;19.10;78.50;;;;;;5010430;28;20073;-54
2023/08/03 06:38:57;;;;;;;2.88;1.40;;;19.10;78.50;;;;;;5009287;28;20050;-55
2023/08/03 06:41:31;;;;;;;2.88;1.15;;;19.10;78.50;;;;;;5009275;28;20049;-51
2023/08/03 06:44:01;;;;;;;0.47;0.47;;;19.10;78.50;;;;;;5009224;28;20475;-51
2023/08/03 06:46:30;;;;;;;1.48;0.50;;;19.10;78.50;;;;;;5009819;28;20034;-54
2023/08/03 06:48:57;;;;;;;1.45;0.47;;;19.10;78.80;;;;;;5009969;28;20971;-51
2023/08/03 06:51:24;;;;;;;1.58;0.70;;;19.10;79.10;;;;;;5008971;28;20042;-51
2023/08/03 06:53:50;;;;;;;1.42;0.52;;;19.10;79.20;;;;;;5008304;28;20045;-54
2023/08/03 06:56:18;;;;;;;1.80;0.57;;;19.10;79.40;;;;;;5009867;28;20044;-53
2023/08/03 06:58:46;;;;;;;2.10;0.65;;;19.10;79.60;;;;;;5008905;28;20530;-52
2023/08/03 07:01:15;;;;;;;1.00;0.88;;;19.10;79.60;;;;;;5008691;28;20064;-51
2023/08/03 07:03:44;;;;;;;2.08;0.73;;;19.20;79.50;;;;;;5008886;28;20116;-55
2023/08/03 07:06:13;;;;;;;1.27;0.70;;;19.20;79.50;;;;;;5009301;28;20117;-49
2023/08/03 07:08:40;;;;;;;2.63;1.17;;;19.30;79.60;;;;;;5008978;28;20467;-54
2023/08/03 07:11:09;;;;;;;0.63;0.60;;;19.30;79.60;;;;;;5009361;28;20519;-50
2023/08/03 07:13:36;;;;;;;2.00;0.82;;;19.30;79.80;;;;;;5009178;28;20050;-50
2023/08/03 07:16:08;;;;;;;1.83;0.90;;;19.40;80.00;;;;;;5008925;28;20049;-51
2023/08/03 07:18:38;;;;;;;1.13;0.77;;;19.40;80.50;;;;;;5009288;28;20588;-51
2023/08/03 07:21:05;;;;;;;3.72;1.02;;;19.50;80.20;;;;;;5009002;28;20057;-51
2023/08/03 07:23:35;;;;;;;1.80;1.10;;;19.60;79.50;;;;;;5002886;28;20046;-54
2023/08/03 07:26:02;;;;;;;3.28;1.02;;;19.60;79.10;;;;;;5008842;28;20054;-50
2023/08/03 07:28:29;;;;;;;2.13;0.90;;;19.60;79.00;;;;;;5012701;28;20117;-54
2023/08/03 07:30:55;;;;;;;1.98;0.82;;;19.60;78.90;;;;;;5008779;28;20046;-53
2023/08/03 07:33:22;;;;;;;1.92;0.98;;;19.70;79.00;;;;;;5009400;28;20472;-51
2023/08/03 07:35:49;;;;;;;1.10;1.00;;;19.70;78.80;;;;;;5008987;28;20401;-51
2023/08/03 07:38:20;;;;;;;0.80;0.80;;;19.70;78.50;;;;;;5012564;28;20149;-53
2023/08/03 07:40:47;;;;;;;1.50;1.38;;;19.70;78.00;;;;;;5012829;28;20088;-51
2023/08/03 07:43:15;;;;;;;1.63;1.10;;;19.70;77.80;;;;;;5013019;28;20054;-50
2023/08/03 07:45:41;;;;;;;2.05;1.00;;;19.70;77.70;;;;;;5010026;28;20117;-50
2023/08/03 07:48:13;;;;;;;1.27;1.13;;;19.80;77.70;;;;;;5013085;28;20574;-54
2023/08/03 07:50:40;;;;;;;3.10;1.00;;;19.80;77.60;;;;;;5012748;28;20109;-51
2023/08/03 07:53:06;;;;;;;2.25;1.45;;;19.70;77.50;;;;;;5012630;28;20100;-52
2023/08/03 07:55:36;;;;;;;2.90;0.85;;;19.80;77.60;;;;;;5011993;28;20100;-50
2023/08/03 07:58:05;;;;;;;1.13;0.70;;;19.80;77.70;;;;;;5005144;28;20061;-55
2023/08/03 08:00:31;;;;;;;2.38;0.90;;;19.80;77.60;;;;;;5009286;28;20042;-50
2023/08/03 08:03:03;;;;;;;1.55;0.90;;;19.80;77.50;;;;;;5009664;28;20057;-52
2023/08/03 08:05:30;;;;;;;2.35;0.95;;;19.80;77.30;;;;;;5012056;28;20057;-53
2023/08/03 08:07:56;;;;;;;3.92;1.05;;;19.80;77.20;;;;;;5011523;28;20547;-54
2023/08/03 08:10:25;;;;;;;2.15;0.93;;;19.80;77.20;;;;;;5012155;28;20515;-52
2023/08/03 08:12:54;;;;;;;1.27;0.95;;;19.80;77.40;;;;;;5011446;28;20068;-55
2023/08/03 08:15:26;;;;;;;1.15;0.70;;;19.90;77.30;;;;;;5011395;28;20042;-55
2023/08/03 08:17:53;;;;;;;3.28;0.90;;;19.90;77.40;;;;;;5012918;28;20053;-52
2023/08/03 08:20:20;;;;;;;2.67;0.93;;;19.90;77.50;;;;;;5012275;28;20053;-51
2023/08/03 08:22:51;;;;;;;1.25;0.90;;;20.00;77.30;;;;;;5009979;28;20055;-55
2023/08/03 08:25:23;;;;;;;1.70;1.00;;;20.10;77.10;;;;;;5010029;28;20100;-51
2023/08/03 08:27:51;;;;;;;1.42;0.68;;;20.10;77.10;;;;;;5016032;28;20042;-53
2023/08/03 08:30:24;;;;;;;3.70;1.05;;;20.20;76.90;;;;;;5011089;28;20045;-50
2023/08/03 08:32:52;;;;;;;2.22;1.20;;;20.20;76.40;;;;;;5011073;28;20523;-54
2023/08/03 08:35:22;;;;;;;3.25;1.20;;;20.20;76.10;;;;;;5012225;28;20049;-52
2023/08/03 08:37:49;;;;;;;2.53;0.85;;;20.20;75.90;;;;;;5011738;28;20488;-54
2023/08/03 08:40:21;;;;;;;1.52;0.88;;;20.20;75.90;;;;;;5011767;28;20655;-50
2023/08/03 08:42:55;;;;;;;3.95;1.52;;;20.20;75.70;;;;;;5011898;28;20048;-52
2023/08/03 08:45:22;;;;;;;2.95;1.20;;;20.20;76.20;;;;;;5006515;28;20121;-51
2023/08/03 08:47:49;;;;;;;2.35;1.23;;;20.10;76.10;;;;;;5010090;28;20081;-51
2023/08/03 08:50:16;;;;;;;3.35;1.10;;;20.10;76.10;;;;;;5008810;28;20045;-53
2023/08/03 08:52:46;;;;;;;2.65;1.20;;;20.10;76.50;;;;;;5010816;28;20038;-53
2023/08/03 08:55:24;;;;;;;1.77;0.90;;;20.10;76.50;;;;;;5003742;28;20042;-54
2023/08/03 08:58:01;;;;;;;2.38;1.20;;;20.10;76.50;;;;;;5006151;28;20168;-51
2023/08/03 09:00:41;;;;;;;3.17;1.10;;;20.10;76.50;;;;;;5009037;28;20092;-53
2023/08/03 09:03:15;;;;;;;1.75;1.30;;;20.20;77.00;;;;;;5010687;28;20092;-53
2023/08/03 09:05:42;;;;;;;2.63;2.33;;;20.20;76.70;;;;;;5010678;28;20029;-50
2023/08/03 09:08:13;;;;;;;3.13;1.23;;;20.30;76.80;;;;;;5011602;28;20046;-55
2023/08/03 09:10:57;;;;;;;2.05;1.42;;;20.40;77.40;;;;;;5011511;28;20099;-51
2023/08/03 09:13:34;;;;;;;4.35;1.80;;;20.50;77.20;;;;;;5006251;28;20477;-52
2023/08/03 09:16:03;;;;;;;1.67;1.20;;;20.60;77.30;;;;;;5008588;28;20064;-51
2023/08/03 09:18:43;;;;;;;1.60;1.15;;;20.80;77.50;;;;;;5011313;28;20675;-50
2023/08/03 09:21:15;;;;;;;2.78;1.23;;;21.00;76.40;;;;;;5010683;28;20137;-53
2023/08/03 09:23:44;;;;;;;1.52;1.27;;;21.20;76.40;;;;;;5009899;28;20034;-51
2023/08/03 09:26:22;;;;;;;2.17;1.30;;;21.30;75.40;;;;;;5013451;28;20084;-53
2023/08/03 09:28:57;;;;;;;1.60;1.27;;;21.50;74.40;;;;;;5008053;28;20052;-50
2023/08/03 09:31:25;;;;;;;2.58;1.08;;;21.50;73.30;;;;;;5010503;28;20137;-53
2023/08/03 09:34:00;;;;;;;5.15;1.00;;;21.60;72.90;;;;;;5010249;28;20038;-51
2023/08/03 09:36:28;;;;;;;3.45;1.05;;;21.60;72.80;;;;;;5011339;28;20034;-54
2023/08/03 09:39:14;;;;;;;2.63;1.20;;;21.70;73.00;;;;;;5009153;28;20117;-52
2023/08/03 09:41:44;;;;;;;2.03;1.25;;;21.80;72.60;;;;;;5008508;28;20042;-50
2023/08/03 09:44:16;;;;;;;;;;;21.80;72.80;;;;;;5010682;28;20462;-51
2023/08/03 09:46:47;;;;;;;1.95;1.10;;;21.90;72.80;;;;;;5009412;28;20447;-54
2023/08/03 09:49:14;;;;;;;1.40;0.75;;;22.00;71.60;;;;;;5009790;28;20393;-50
2023/08/03 09:51:49;;;;;;;3.42;1.50;;;22.00;71.10;;;;;;5011244;28;20037;-54
2023/08/03 09:54:35;;;;;;;1.88;1.17;;;22.00;70.60;;;;;;5010064;28;20072;-52
2023/08/03 09:57:16;;;;;;;3.47;1.40;;;22.00;70.40;;;;;;5010230;28;20048;-53
2023/08/03 09:59:50;;;;;;;3.83;1.48;;;22.00;71.40;;;;;;5008239;28;20073;-53
2023/08/03 10:02:22;;;;;;;2.40;1.50;;;22.10;71.60;;;;;;5008894;28;20038;-52
2023/08/03 10:04:58;;;;;;;2.80;1.20;;;22.20;71.40;;;;;;5009448;28;20041;-54
2023/08/03 10:07:41;;;;;;;4.50;1.40;;;22.30;70.40;;;;;;5004159;28;20448;-54
2023/08/03 10:10:12;;;;;;;3.80;1.55;;;22.40;70.50;;;;;;5008185;28;20505;-53
2023/08/03 10:12:50;;;;;;;2.58;0.68;;;22.50;70.00;;;;;;5009290;28;20042;-55
2023/08/03 10:15:19;;;;;;;1.23;0.90;;;22.60;68.80;;;;;;5008300;28;20423;-50
2023/08/03 10:17:51;;;;;;;1.92;1.00;;;22.70;68.60;;;;;;5009013;28;20046;-54
2023/08/03 10:20:23;;;;;;;2.08;1.05;;;22.70;68.30;;;;;;5009050;28;20050;-53
2023/08/03 10:23:11;;;;;;;2.28;1.08;;;22.70;67.40;;;;;;5008247;28;20108;-52
2023/08/03 10:25:53;;;;;;;3.60;0.90;;;22.70;66.70;;;;;;5001307;28;20030;-55
2023/08/03 10:28:27;;;;;;;2.65;1.00;;;22.70;66.50;;;;;;5003246;28;20496;-51
2023/08/03 10:31:17;;;;;;;2.03;1.20;;;22.70;66.90;;;;;;5008111;28;20503;-53
2023/08/03 10:33:49;;;;;;;0.93;0.60;;;22.70;66.20;;;;;;5008902;28;20418;-54
2023/08/03 10:36:38;;;;;;;3.45;1.00;;;22.70;66.70;;;;;;5008779;28;20363;-53
2023/08/03 10:39:11;;;;;;;3.50;1.08;;;22.70;65.90;;;;;;5007605;28;20048;-53
2023/08/03 10:41:44;;;;;;;2.35;1.10;;;22.70;66.60;;;;;;5008783;28;20526;-51
2023/08/03 10:44:14;;;;;;;1.65;1.05;;;22.70;66.50;;;;;;5006257;28;20050;-55
2023/08/03 10:46:47;;;;;;;5.03;1.25;;;22.70;66.90;;;;;;5006020;28;20046;-55
2023/08/03 10:49:18;;;;;;;1.42;1.00;;;22.70;66.50;;;;;;5007167;28;20078;-53
2023/08/03 10:51:55;;;;;;;1.45;0.70;;;22.70;66.10;;;;;;5006908;28;20504;-54
2023/08/03 10:54:32;;;;;;;3.10;0.70;;;22.70;65.60;;;;;;5004211;28;20143;-53
2023/08/03 10:57:08;;;;;;;1.25;0.65;;;22.70;66.50;;;;;;5006166;28;20046;-55
2023/08/03 10:59:41;;;;;;;0.75;0.47;;;22.70;66.00;;;;;;5003662;28;20130;-50
2023/08/03 11:02:14;;;;;;;1.55;0.60;;;22.70;66.20;;;;;;5007552;28;20045;-55
2023/08/03 11:04:44;;;;;;;1.05;0.80;;;22.70;66.50;;;;;;5008969;28;20046;-55
2023/08/03 11:07:14;;;;;;;1.63;0.98;;;22.80;66.90;;;;;;5004425;28;20074;-54
2023/08/03 11:09:48;;;;;;;1.90;0.82;;;22.90;66.70;;;;;;5008219;28;20052;-55
2023/08/03 11:12:16;;;;;;;1.65;0.60;;;23.00;66.20;;;;;;5009045;28;20069;-54
2023/08/03 11:14:45;;;;;;;1.42;0.77;;;23.10;66.40;;;;;;5011933;28;20732;-53
2023/08/03 11:17:14;;;;;;;1.15;0.88;;;23.10;65.20;;;;;;5012311;28;20504;-55
2023/08/03 11:19:43;;;;;;;1.23;0.70;;;23.10;64.70;;;;;;5012962;28;20052;-53
2023/08/03 11:22:12;;;;;;;1.08;0.50;;;23.10;64.70;;;;;;5011991;28;20052;-54
2023/08/03 11:24:39;;;;;;;1.75;0.90;;;23.10;64.80;;;;;;5011513;28;20049;-55
2023/08/03 11:27:06;;;;;;;1.05;0.60;;;23.10;64.60;;;;;;5011659;28;20403;-55
2023/08/03 11:29:36;;;;;;;2.10;0.60;;;23.00;64.40;;;;;;5007870;28;20133;-55
2023/08/03 11:32:04;;;;;;;0.77;0.60;;;23.00;64.60;;;;;;5010070;28;20574;-55
2023/08/03 11:34:32;;;;;;;1.52;0.70;;;23.00;64.60;;;;;;5008846;28;20057;-54
2023/08/03 11:37:00;;;;;;;1.38;0.68;;;22.90;64.90;;;;;;5012718;28;20411;-55
2023/08/03 11:39:27;;;;;;;0.73;0.50;;;22.90;65.20;;;;;;5014397;28;20061;-55
2023/08/03 11:42:03;;;;;;;0.93;0.40;;;22.90;65.00;;;;;;5013053;28;20041;-55
2023/08/03 11:44:30;;;;;;;1.27;0.70;;;22.90;65.00;;;;;;5011230;28;20072;-55
2023/08/03 11:47:07;;;;;;;1.25;0.47;;;22.90;64.90;;;;;;5012054;28;20060;-55
2023/08/03 11:49:36;;;;;;;1.73;0.75;;;22.90;64.90;;;;;;5010944;28;20060;-55
2023/08/03 11:52:04;;;;;;;1.17;0.55;;;22.90;64.90;;;;;;5007472;28;20112;-55
2023/08/03 11:54:34;;;;;;;0.95;0.32;;;22.80;64.90;;;;;;5004388;28;20052;-55
2023/08/03 11:59:52;;;;;;;2.78;0.80;;;22.90;65.00;;;;;;5010816;28;20355;-55
2023/08/03 12:02:39;;;;;;;0.85;0.70;;;22.90;65.00;;;;;;5007049;28;20054;-55
2023/08/03 12:05:17;;;;;;;1.33;0.77;;;22.90;64.70;;;;;;5009675;28;20557;-55
2023/08/03 12:07:55;;;;;;;2.45;1.17;;;22.80;64.80;;;;;;5012455;28;20536;-55
2023/08/03 12:10:24;;;;;;;4.18;1.02;;;22.80;64.50;;;;;;5012235;28;20034;-54
2023/08/03 12:12:54;;;;;;;1.33;0.68;;;22.70;65.20;;;;;;5007839;28;20110;-55
2023/08/03 12:15:30;;;;;;;2.05;0.88;;;22.60;65.60;;;;;;5011475;28;20690;-55
2023/08/03 12:18:01;;;;;;;1.33;0.85;;;22.50;65.90;;;;;;5010149;28;20045;-54
2023/08/03 12:20:28;;;;;;;1.65;1.48;;;22.40;66.50;;;;;;5011892;28;20042;-55
2023/08/03 12:22:57;;;;;;;1.80;0.90;;;22.30;66.60;;;;;;5010326;28;20046;-55
2023/08/03 12:25:28;;;;;;;0.98;0.90;;;22.20;66.80;;;;;;5011564;28;20041;-50
2023/08/03 12:28:08;;;;;;;1.75;0.77;;;22.10;67.00;;;;;;5013122;28;20042;-55
2023/08/03 12:30:37;;;;;;;3.35;1.35;;;22.00;67.90;;;;;;5010960;28;20038;-53
2023/08/03 12:33:05;;;;;;;1.17;1.05;;;22.00;68.60;;;;;;5007361;28;20104;-55
2023/08/03 12:35:31;;;;;;;1.63;1.10;;;22.00;68.60;;;;;;5011754;28;20061;-55
2023/08/03 12:37:58;;;;;;;3.15;1.30;;;22.20;69.00;;;;;;5011228;28;20049;-49
2023/08/03 12:40:26;;;;;;;2.13;1.10;;;22.10;69.00;;;;;;5008420;28;20528;-48
2023/08/03 12:42:54;;;;;;;1.77;1.10;;;22.20;68.80;;;;;;5012719;28;20106;-49
2023/08/03 12:45:27;;;;;;;2.13;1.20;;;22.20;68.60;;;;;;5012470;28;20507;-48
2023/08/03 12:47:54;;;;;;;1.10;1.00;;;22.20;68.40;;;;;;5011986;28;20042;-49
2023/08/03 12:50:29;;;;;;;1.92;1.20;;;22.20;68.70;;;;;;5011522;28;20045;-49
2023/08/03 12:52:59;;;;;;;1.92;1.08;;;22.10;68.70;;;;;;5011744;28;20046;-49
2023/08/03 12:55:25;;;;;;;1.27;1.00;;;22.10;68.90;;;;;;5010805;28;20050;-49
2023/08/03 12:57:55;;;;;;;1.30;1.20;;;22.10;69.20;;;;;;5010825;28;20419;-52
2023/08/03 13:00:27;;;;;;;;;;;22.00;69.60;;;;;;5010677;28;20463;-52
2023/08/03 13:02:57;;;;;;;1.63;1.10;;;22.10;69.40;;;;;;5011655;28;19932;-50
2023/08/03 13:05:23;;;;;;;2.80;1.10;;;21.90;69.50;;;;;;5011226;28;20489;-49
2023/08/03 13:07:53;;;;;;;1.45;0.98;;;21.80;70.30;;;;;;5011349;28;20061;-50